Washington, GA (30673)

20:31 EDT 30. Srpen 2015 (GMT -0400)
Washington-Wilkes County | | Change Station
CLOSE
Current Station
Letiště
Location: Washington,
Nadmořská výška: 646 ft
Poblíž povětrnostní stanice

Výška 646 ft 33.78 °N, 82.82 °W | Updated 16 minutes ago

Skoro zataženo
Skoro zataženo
70 °F
Pocit jako 70 °F
S
4
Vítr proměnlivý Vítr od východní

Dnes
Vysoké -- | Nízké -- °F
--% Možnost srážek
Včera
Vysoké -- | Nízké -- °F
Precip. -- inčů
7:03 AM 7:59 PM
Úplněk, 98% visible
Tlak 30.11 inčů
Viditelnost 10.0 mílí
Zataženo Polojasno 1200 ft
Skoro zataženo 5500 ft
Rosný bod 70 °F
Vlhkost 100%
Dešťové srážky 0.00 inčů
Sněhová pokrývka Není k dispozici
UV záření 0 ze 12
Pyl 3.80 ze 12
Kvalita ovzduší Není k dispozici
Flu Activity Není k dispozici
METAR KIIY 310015Z AUTO 10003KT 10SM SCT012 BKN055 21/21 A3011 RMK AO2
Tlak 30.11 inčů
Viditelnost 10.0 mílí
Zataženo Polojasno 1200 ft
Skoro zataženo 5500 ft
Rosný bod 70 °F
Vlhkost 100%
Dešťové srážky 0.00 inčů
Sněhová pokrývka Není k dispozici
UV záření 0 ze 12
Pyl 3.80 ze 12
Kvalita ovzduší Není k dispozici
Flu Activity Není k dispozici
METAR KIIY 310015Z AUTO 10003KT 10SM SCT012 BKN055 21/21 A3011 RMK AO2

10-Day Weather Forecast

×

Almanac

Astronomie

Aug. 30, 2015 Východ Západ
Skutečný čas
Občanský soumrak
Námořní soumrak
Astronomický soumrak
Měsíc
Délka denního světla
Délka dne
Tomorrow will be .
, % of the Moon is Illuminated

Dnešní extrémy

State Highs State Lows

Community

WunderPhotos

Upload Photos

1,851,111 snímků staženo!

WunderBlogs® & News

Nearby

Kvalita ovzduší

  Kvalita ovzduší Index kvality ovzduší Polutant
Not available.

Výška sněhu

Station Hloubka Nadmořská výška

Seizmická činnost

Město Distance Mag. Čas & datum
Minimální zobrazený rozsah je 2.5.

Pobřežní teplota vody

Lokalita Teplota

Stations

Poblíž povětrnostní stanice

Lokace stanice Tepl. Ochlazování větrem Rosný bod Vlhkost Vítr Precip. Výška Čas hlášení Typ